Time;durP1;ratioP1;P1;durP2;ratioP2;P2;SDS_P1;SDS_P2;PMS_P1;PMS_P2;Temp;Humidity;BMP_temperature;BMP_pressure;BME280_temperature;BME280_humidity;BME280_pressure;Samples;Min_cycle;Max_cycle;Signal;HPM_P1;HPM_P2
2023/08/04 00:01:09;;;;;;;5.10;2.50;;;;;;;;;;10366308;28;20040;-56
2023/08/04 00:06:10;;;;;;;9.15;3.20;;;;;;;;;;10366531;28;20029;-56
2023/08/04 00:11:11;;;;;;;5.82;2.97;;;;;;;;;;10367399;28;20038;-57
2023/08/04 00:16:11;;;;;;;4.60;2.70;;;;;;;;;;10367372;28;20486;-55
2023/08/04 00:21:12;;;;;;;8.60;2.95;;;;;;;;;;10367458;28;20513;-66
2023/08/04 00:26:12;;;;;;;6.60;2.70;;;;;;;;;;10367078;28;20022;-56
2023/08/04 00:31:14;;;;;;;4.45;2.70;;;;;;;;;;10367111;28;20084;-55
2023/08/04 00:36:14;;;;;;;4.93;2.90;;;;;;;;;;10366852;28;20171;-54
2023/08/04 00:41:15;;;;;;;4.38;2.60;;;;;;;;;;10366958;28;20050;-57
2023/08/04 00:46:16;;;;;;;5.80;3.17;;;;;;;;;;10367104;28;20026;-54
2023/08/04 00:51:17;;;;;;;4.45;2.83;;;;;;;;;;10366276;28;20046;-56
2023/08/04 00:56:18;;;;;;;5.38;2.95;;;;;;;;;;10357455;28;20026;-56
2023/08/04 01:01:19;;;;;;;6.15;3.10;;;;;;;;;;10360178;28;20045;-57
2023/08/04 01:06:51;;;;;;;3.88;2.78;;;;;;;;;;10365877;28;20038;-61
2023/08/04 01:12:30;;;;;;;6.68;3.20;;;;;;;;;;10346115;28;20050;-55
2023/08/04 01:17:32;;;;;;;5.15;3.25;;;;;;;;;;10370319;28;20104;-57
2023/08/04 01:22:34;;;;;;;5.85;3.28;;;;;;;;;;10373338;28;20026;-59
2023/08/04 01:27:46;;;;;;;5.03;3.38;;;;;;;;;;10373164;28;20034;-58
2023/08/04 01:32:47;;;;;;;7.40;3.30;;;;;;;;;;10371507;28;20466;-67
2023/08/04 01:37:48;;;;;;;5.22;3.50;;;;;;;;;;10371570;28;20121;-58
2023/08/04 01:42:48;;;;;;;5.57;3.25;;;;;;;;;;10373653;28;20497;-57
2023/08/04 01:47:50;;;;;;;10.00;3.58;;;;;;;;;;10372472;28;20324;-52
2023/08/04 01:52:51;;;;;;;7.65;3.88;;;;;;;;;;10371073;28;20564;-59
2023/08/04 01:57:51;;;;;;;3.88;3.45;;;;;;;;;;10372417;28;20120;-60
2023/08/04 02:02:52;;;;;;;4.55;3.55;;;;;;;;;;10371519;28;20415;-56
2023/08/04 02:07:53;;;;;;;9.27;3.35;;;;;;;;;;10371391;28;20474;-57
2023/08/04 02:12:53;;;;;;;8.55;3.92;;;;;;;;;;10370294;28;20033;-58
2023/08/04 02:17:54;;;;;;;10.90;4.00;;;;;;;;;;10370424;28;20092;-59
2023/08/04 02:22:54;;;;;;;7.78;3.30;;;;;;;;;;10370589;28;20027;-60
2023/08/04 02:27:55;;;;;;;4.55;3.35;;;;;;;;;;10370037;28;20032;-58
2023/08/04 02:32:56;;;;;;;14.93;4.20;;;;;;;;;;10370208;28;20037;-59
2023/08/04 02:37:56;;;;;;;8.07;3.53;;;;;;;;;;10369906;28;20022;-58
2023/08/04 02:42:57;;;;;;;5.32;3.65;;;;;;;;;;10369947;28;20041;-58
2023/08/04 02:47:57;;;;;;;4.75;3.10;;;;;;;;;;10369640;28;20029;-63
2023/08/04 02:52:58;;;;;;;9.52;4.05;;;;;;;;;;10369258;28;20053;-56
2023/08/04 02:57:58;;;;;;;8.43;3.92;;;;;;;;;;10369311;28;20025;-57
2023/08/04 03:02:59;;;;;;;5.65;3.40;;;;;;;;;;10368217;28;20258;-56
2023/08/04 03:07:59;;;;;;;6.82;3.30;;;;;;;;;;10369455;28;20041;-60
2023/08/04 03:13:00;;;;;;;8.55;4.15;;;;;;;;;;10369699;28;20029;-58
2023/08/04 03:18:01;;;;;;;7.60;4.45;;;;;;;;;;10369035;28;20465;-55
2023/08/04 03:23:01;;;;;;;9.93;4.40;;;;;;;;;;10368445;28;20037;-65
2023/08/04 03:28:02;;;;;;;10.05;4.82;;;;;;;;;;10368093;28;20026;-57
2023/08/04 03:33:02;;;;;;;10.55;4.40;;;;;;;;;;10367870;28;20030;-57
2023/08/04 03:38:04;;;;;;;9.65;4.30;;;;;;;;;;10366661;28;20168;-56
2023/08/04 03:43:05;;;;;;;18.15;4.30;;;;;;;;;;10367859;28;20030;-57
2023/08/04 03:48:06;;;;;;;13.23;3.90;;;;;;;;;;10367625;28;20121;-54
2023/08/04 03:53:06;;;;;;;11.18;4.18;;;;;;;;;;10367329;28;20072;-55
2023/08/04 03:58:07;;;;;;;6.15;4.10;;;;;;;;;;10359308;28;20030;-52
2023/08/04 04:03:07;;;;;;;6.78;4.25;;;;;;;;;;10353802;28;20037;-55
2023/08/04 04:08:08;;;;;;;8.35;4.10;;;;;;;;;;10367549;28;20288;-52
2023/08/04 04:13:09;;;;;;;12.18;3.90;;;;;;;;;;10367773;28;20030;-58
2023/08/04 04:18:09;;;;;;;11.13;3.92;;;;;;;;;;10367522;28;20032;-55
2023/08/04 04:23:10;;;;;;;10.13;4.28;;;;;;;;;;10367583;28;20034;-59
2023/08/04 04:28:10;;;;;;;7.82;3.90;;;;;;;;;;10366724;28;20026;-57
2023/08/04 04:33:11;;;;;;;7.82;3.72;;;;;;;;;;10366829;28;20040;-59
2023/08/04 04:38:12;;;;;;;7.28;3.45;;;;;;;;;;10366154;28;20053;-59
2023/08/04 04:43:12;;;;;;;7.50;3.75;;;;;;;;;;10366173;28;20034;-59
2023/08/04 04:48:13;;;;;;;13.80;3.78;;;;;;;;;;10367490;28;20036;-56
2023/08/04 04:53:13;;;;;;;10.85;3.85;;;;;;;;;;10374116;28;20046;-56
2023/08/04 04:58:14;;;;;;;12.00;3.88;;;;;;;;;;10374249;28;20030;-57
2023/08/04 05:03:15;;;;;;;10.55;3.95;;;;;;;;;;10374002;28;20417;-59
2023/08/04 05:08:15;;;;;;;7.22;3.72;;;;;;;;;;10373650;28;20273;-60
2023/08/04 05:13:16;;;;;;;11.23;3.88;;;;;;;;;;10372882;28;20045;-59
2023/08/04 05:18:17;;;;;;;7.78;3.60;;;;;;;;;;10373381;28;20080;-61
2023/08/04 05:23:17;;;;;;;9.60;3.13;;;;;;;;;;10373471;28;20021;-61
2023/08/04 05:28:30;;;;;;;11.70;3.70;;;;;;;;;;10373015;28;20084;-60
2023/08/04 05:33:32;;;;;;;8.13;3.58;;;;;;;;;;10373205;28;20029;-60
2023/08/04 05:38:33;;;;;;;5.60;3.40;;;;;;;;;;10373397;28;20124;-68
2023/08/04 05:43:33;;;;;;;8.18;3.28;;;;;;;;;;10372110;28;20593;-66
2023/08/04 05:48:34;;;;;;;8.27;3.05;;;;;;;;;;10372088;28;20030;-70
2023/08/04 05:53:35;;;;;;;6.47;2.83;;;;;;;;;;10371851;28;20052;-61
2023/08/04 05:58:35;;;;;;;7.68;3.17;;;;;;;;;;10371713;28;20474;-59
2023/08/04 06:03:36;;;;;;;5.95;3.08;;;;;;;;;;10370632;28;20045;-60
2023/08/04 06:08:36;;;;;;;13.70;3.00;;;;;;;;;;10371030;28;20022;-60
2023/08/04 06:13:37;;;;;;;6.18;3.00;;;;;;;;;;10371906;28;20026;-60
2023/08/04 06:18:38;;;;;;;4.80;2.72;;;;;;;;;;10369398;28;20060;-65
2023/08/04 06:23:45;;;;;;;9.30;3.28;;;;;;;;;;10371125;28;20030;-66
2023/08/04 06:28:45;;;;;;;10.23;2.83;;;;;;;;;;10370650;28;20089;-64
2023/08/04 06:33:46;;;;;;;4.70;2.85;;;;;;;;;;10370349;28;20029;-67
2023/08/04 06:38:47;;;;;;;6.20;3.05;;;;;;;;;;10370218;28;20154;-65
2023/08/04 06:43:47;;;;;;;7.53;3.25;;;;;;;;;;10369004;28;20413;-58
2023/08/04 06:48:48;;;;;;;5.90;2.78;;;;;;;;;;10368475;28;20367;-58
2023/08/04 06:53:48;;;;;;;3.35;2.53;;;;;;;;;;10368485;28;20394;-59
2023/08/04 06:58:49;;;;;;;3.72;2.78;;;;;;;;;;10368733;28;20448;-59
2023/08/04 07:03:49;;;;;;;6.03;3.00;;;;;;;;;;10369665;28;20279;-59
2023/08/04 07:08:50;;;;;;;6.40;3.10;;;;;;;;;;10369675;28;20033;-59
2023/08/04 07:13:51;;;;;;;8.15;2.80;;;;;;;;;;10369571;28;20064;-59
2023/08/04 07:18:51;;;;;;;6.38;3.05;;;;;;;;;;10368925;28;20018;-62
2023/08/04 07:23:52;;;;;;;6.13;3.10;;;;;;;;;;10368720;28;20026;-62
2023/08/04 07:28:53;;;;;;;5.30;3.00;;;;;;;;;;10368638;28;20045;-63
2023/08/04 07:33:55;;;;;;;4.18;2.67;;;;;;;;;;10368784;28;20025;-63
2023/08/04 07:38:56;;;;;;;5.20;2.80;;;;;;;;;;10368807;28;20026;-62
2023/08/04 07:43:57;;;;;;;5.50;3.08;;;;;;;;;;10367963;28;20049;-66
2023/08/04 07:48:57;;;;;;;12.73;3.13;;;;;;;;;;10368416;28;20093;-64
2023/08/04 07:53:58;;;;;;;10.27;2.85;;;;;;;;;;10367795;28;20046;-66
2023/08/04 07:58:58;;;;;;;5.25;2.88;;;;;;;;;;10367774;28;20066;-64
2023/08/04 08:04:01;;;;;;;7.03;3.13;;;;;;;;;;10367681;28;20034;-68
2023/08/04 08:09:02;;;;;;;6.20;3.22;;;;;;;;;;10367987;28;20040;-66
2023/08/04 08:14:03;;;;;;;7.90;3.30;;;;;;;;;;10367742;28;20080;-67
2023/08/04 08:19:03;;;;;;;6.13;3.03;;;;;;;;;;10367977;28;20153;-66
2023/08/04 08:24:04;;;;;;;5.03;2.60;;;;;;;;;;10370266;28;20025;-67
2023/08/04 08:29:06;;;;;;;6.22;3.17;;;;;;;;;;10374671;28;20459;-61
2023/08/04 08:34:06;;;;;;;4.25;2.70;;;;;;;;;;10374439;28;20025;-61
2023/08/04 08:39:07;;;;;;;4.47;3.20;;;;;;;;;;10374985;28;20490;-61
2023/08/04 08:44:09;;;;;;;3.70;3.05;;;;;;;;;;10375312;28;20026;-61
2023/08/04 08:49:11;;;;;;;4.57;2.75;;;;;;;;;;10374883;28;20032;-61
2023/08/04 08:54:12;;;;;;;4.90;3.25;;;;;;;;;;10374205;28;20176;-61
2023/08/04 08:59:13;;;;;;;5.18;2.85;;;;;;;;;;10372377;28;20366;-61
2023/08/04 09:04:15;;;;;;;9.13;3.35;;;;;;;;;;10374394;28;20025;-57
2023/08/04 09:09:16;;;;;;;9.07;3.33;;;;;;;;;;10372397;28;20029;-59
2023/08/04 09:14:17;;;;;;;8.73;3.72;;;;;;;;;;10372044;28;20046;-59
2023/08/04 09:19:18;;;;;;;8.10;3.90;;;;;;;;;;10373627;28;20452;-59
2023/08/04 09:24:18;;;;;;;8.23;3.35;;;;;;;;;;10373919;28;20037;-59
2023/08/04 09:29:19;;;;;;;5.72;3.47;;;;;;;;;;10373562;28;20459;-59
2023/08/04 09:34:20;;;;;;;7.95;3.63;;;;;;;;;;10371855;28;20463;-59
2023/08/04 09:39:20;;;;;;;7.55;3.80;;;;;;;;;;10372500;28;20034;-59
2023/08/04 09:44:21;;;;;;;7.00;3.42;;;;;;;;;;10372382;28;20041;-59
2023/08/04 09:49:22;;;;;;;8.30;3.35;;;;;;;;;;10372867;28;20037;-61
2023/08/04 09:54:22;;;;;;;9.70;3.50;;;;;;;;;;10372040;28;20133;-59
2023/08/04 09:59:24;;;;;;;7.15;3.28;;;;;;;;;;10372037;28;20029;-59
2023/08/04 10:04:25;;;;;;;9.50;3.78;;;;;;;;;;10372268;28;20026;-59
2023/08/04 10:09:27;;;;;;;4.55;3.22;;;;;;;;;;10371721;28;20030;-59
2023/08/04 10:14:28;;;;;;;6.13;3.30;;;;;;;;;;10370669;28;20026;-59
2023/08/04 10:19:29;;;;;;;6.65;3.28;;;;;;;;;;10371281;28;20390;-59
2023/08/04 10:24:29;;;;;;;7.15;3.60;;;;;;;;;;10370855;28;20473;-59
2023/08/04 10:29:34;;;;;;;4.68;3.30;;;;;;;;;;10370848;28;20030;-59
2023/08/04 10:34:42;;;;;;;7.25;3.70;;;;;;;;;;10371028;28;20030;-59
2023/08/04 10:39:58;;;;;;;5.10;3.47;;;;;;;;;;10370867;28;20037;-59
2023/08/04 10:45:07;;;;;;;6.63;3.50;;;;;;;;;;10370039;28;20476;-59
2023/08/04 10:50:08;;;;;;;5.70;3.40;;;;;;;;;;10369509;28;20026;-59
2023/08/04 10:55:13;;;;;;;10.00;3.38;;;;;;;;;;10369924;28;20032;-59
2023/08/04 11:00:14;;;;;;;4.38;3.05;;;;;;;;;;10369684;28;20021;-59
2023/08/04 11:05:15;;;;;;;5.13;3.35;;;;;;;;;;10369325;28;20026;-59
2023/08/04 11:10:15;;;;;;;5.50;3.13;;;;;;;;;;10369135;28;20268;-59
2023/08/04 11:15:16;;;;;;;4.97;3.38;;;;;;;;;;10369417;28;20110;-59
2023/08/04 11:20:17;;;;;;;5.75;3.40;;;;;;;;;;10368760;28;20044;-59
2023/08/04 11:25:17;;;;;;;6.65;3.42;;;;;;;;;;10368961;28;20030;-59
2023/08/04 11:30:18;;;;;;;5.68;3.28;;;;;;;;;;10368808;28;20041;-59
2023/08/04 11:35:19;;;;;;;6.20;3.33;;;;;;;;;;10368755;28;20037;-59
2023/08/04 11:40:21;;;;;;;4.63;3.40;;;;;;;;;;10368556;28;20033;-59
2023/08/04 11:45:22;;;;;;;7.35;3.35;;;;;;;;;;10368163;28;20529;-60
2023/08/04 11:50:25;;;;;;;6.07;3.10;;;;;;;;;;10367408;28;20056;-60
2023/08/04 11:55:25;;;;;;;8.73;3.72;;;;;;;;;;10368114;28;20109;-60
2023/08/04 12:00:37;;;;;;;6.07;3.10;;;;;;;;;;10367011;28;20396;-58
2023/08/04 12:05:38;;;;;;;5.78;2.83;;;;;;;;;;10367698;28;20504;-59
2023/08/04 12:10:40;;;;;;;3.35;2.08;;;;;;;;;;10367770;28;20034;-59
2023/08/04 12:15:53;;;;;;;5.25;2.20;;;;;;;;;;10367034;28;20386;-59
2023/08/04 12:20:56;;;;;;;3.47;2.20;;;;;;;;;;10366641;28;20052;-59
2023/08/04 12:25:57;;;;;;;8.18;2.35;;;;;;;;;;10367675;28;20061;-59
2023/08/04 12:30:58;;;;;;;5.43;2.45;;;;;;;;;;10366714;28;20042;-59
2023/08/04 12:35:58;;;;;;;6.50;2.50;;;;;;;;;;10366951;28;20034;-60
2023/08/04 12:40:59;;;;;;;2.60;2.05;;;;;;;;;;10367204;28;20200;-59
2023/08/04 12:45:59;;;;;;;3.38;2.15;;;;;;;;;;10366373;28;20422;-70
2023/08/04 12:51:00;;;;;;;5.05;2.10;;;;;;;;;;10366611;28;20104;-70
2023/08/04 12:56:01;;;;;;;6.35;2.88;;;;;;;;;;10366025;28;20036;-59
2023/08/04 13:01:01;;;;;;;7.25;2.08;;;;;;;;;;10367149;28;20022;-60
2023/08/04 13:06:04;;;;;;;2.95;2.03;;;;;;;;;;10366215;28;20095;-59
2023/08/04 13:11:04;;;;;;;3.65;1.95;;;;;;;;;;10370454;28;20482;-59
2023/08/04 13:16:05;;;;;;;2.88;2.03;;;;;;;;;;10373571;28;20026;-59
2023/08/04 13:21:06;;;;;;;4.88;2.55;;;;;;;;;;10373629;28;20092;-59
2023/08/04 13:26:07;;;;;;;3.40;2.03;;;;;;;;;;10372691;28;20034;-59
2023/08/04 13:31:12;;;;;;;2.85;1.90;;;;;;;;;;10372634;28;20076;-59
2023/08/04 13:36:12;;;;;;;2.80;1.77;;;;;;;;;;10372714;28;20064;-59
2023/08/04 13:41:13;;;;;;;2.05;1.63;;;;;;;;;;10372753;28;20057;-59
2023/08/04 13:46:14;;;;;;;1.65;1.48;;;;;;;;;;10372414;28;20030;-59
2023/08/04 13:51:14;;;;;;;5.03;1.60;;;;;;;;;;10372218;28;20049;-59
2023/08/04 13:56:15;;;;;;;5.38;1.52;;;;;;;;;;10371197;28;20034;-59
2023/08/04 14:01:16;;;;;;;5.45;1.52;;;;;;;;;;10372527;28;20037;-59
2023/08/04 14:06:16;;;;;;;8.80;1.92;;;;;;;;;;10371948;28;20077;-59
2023/08/04 14:11:18;;;;;;;12.85;1.73;;;;;;;;;;10371407;28;20022;-59
2023/08/04 14:16:18;;;;;;;6.05;1.55;;;;;;;;;;10371054;28;20026;-59
2023/08/04 14:21:19;;;;;;;7.28;1.50;;;;;;;;;;10370706;28;20532;-59
2023/08/04 14:26:19;;;;;;;9.73;1.63;;;;;;;;;;10371048;28;20369;-59
2023/08/04 14:31:20;;;;;;;11.90;1.60;;;;;;;;;;10370851;28;20026;-59
2023/08/04 14:36:21;;;;;;;6.97;1.58;;;;;;;;;;10370661;28;20482;-59
2023/08/04 14:41:21;;;;;;;5.25;1.30;;;;;;;;;;10370803;28;20356;-60
2023/08/04 14:46:22;;;;;;;4.70;1.50;;;;;;;;;;10370126;28;20112;-59
2023/08/04 14:51:22;;;;;;;2.88;1.00;;;;;;;;;;10370142;28;20045;-59
2023/08/04 14:56:23;;;;;;;5.53;1.60;;;;;;;;;;10369134;28;20034;-59
2023/08/04 15:01:24;;;;;;;8.93;1.60;;;;;;;;;;10369806;28;20030;-59
2023/08/04 15:06:24;;;;;;;6.25;1.50;;;;;;;;;;10369393;28;20032;-60
2023/08/04 15:11:25;;;;;;;2.67;1.50;;;;;;;;;;10369746;28;20067;-60
2023/08/04 15:16:25;;;;;;;7.35;2.00;;;;;;;;;;10368489;28;20029;-59
2023/08/04 15:21:26;;;;;;;2.90;1.63;;;;;;;;;;10368348;28;20050;-60
2023/08/04 15:26:26;;;;;;;4.38;1.20;;;;;;;;;;10368250;28;20394;-59
2023/08/04 15:31:27;;;;;;;1.35;1.15;;;;;;;;;;10367948;28;20025;-59
2023/08/04 15:36:28;;;;;;;3.95;1.40;;;;;;;;;;10367101;28;20026;-59
2023/08/04 15:41:28;;;;;;;2.08;1.20;;;;;;;;;;10368169;28;20040;-59
2023/08/04 15:46:29;;;;;;;4.63;1.35;;;;;;;;;;10368092;28;20088;-59
2023/08/04 15:51:29;;;;;;;3.60;1.52;;;;;;;;;;10368174;28;20053;-59
2023/08/04 15:56:30;;;;;;;3.63;1.30;;;;;;;;;;10368024;28;20433;-59
2023/08/04 16:01:30;;;;;;;4.50;1.23;;;;;;;;;;10368866;28;20108;-59
2023/08/04 16:06:31;;;;;;;4.00;1.55;;;;;;;;;;10367821;28;20037;-59
2023/08/04 16:11:31;;;;;;;9.25;2.40;;;;;;;;;;10367520;28;20185;-59
2023/08/04 16:16:33;;;;;;;30.90;3.50;;;;;;;;;;10366710;28;20018;-59
2023/08/04 16:21:33;;;;;;;7.28;2.60;;;;;;;;;;10367292;28;20106;-59
2023/08/04 16:26:36;;;;;;;7.07;2.10;;;;;;;;;;10367264;28;20096;-60
2023/08/04 16:31:36;;;;;;;13.48;2.65;;;;;;;;;;10367068;28;20385;-59
2023/08/04 16:36:37;;;;;;;3.70;1.77;;;;;;;;;;10367113;28;20033;-59
2023/08/04 16:41:38;;;;;;;6.43;1.80;;;;;;;;;;10367109;28;20088;-59
2023/08/04 16:46:38;;;;;;;4.22;1.60;;;;;;;;;;10372604;28;20033;-59
2023/08/04 16:51:39;;;;;;;5.85;1.70;;;;;;;;;;10375043;28;20049;-59
2023/08/04 16:56:39;;;;;;;4.55;2.10;;;;;;;;;;10374655;28;20040;-59
2023/08/04 17:01:40;;;;;;;2.92;1.52;;;;;;;;;;10374983;28;20037;-59
2023/08/04 17:06:41;;;;;;;3.05;1.98;;;;;;;;;;10374811;28;20030;-59
2023/08/04 17:11:41;;;;;;;3.70;1.70;;;;;;;;;;10374341;28;20544;-59
2023/08/04 17:16:42;;;;;;;3.78;1.73;;;;;;;;;;10374361;28;20458;-59
2023/08/04 17:21:42;;;;;;;5.13;1.98;;;;;;;;;;10374896;28;20026;-59
2023/08/04 17:26:43;;;;;;;9.38;2.28;;;;;;;;;;10373688;28;20022;-60
2023/08/04 17:31:44;;;;;;;3.15;1.63;;;;;;;;;;10373277;28;20497;-59
2023/08/04 17:36:45;;;;;;;3.10;1.73;;;;;;;;;;10373300;28;20030;-59
2023/08/04 17:41:45;;;;;;;3.13;1.88;;;;;;;;;;10373346;28;20036;-59
2023/08/04 17:46:46;;;;;;;3.00;2.03;;;;;;;;;;10372721;28;20433;-59
2023/08/04 17:51:46;;;;;;;5.03;1.88;;;;;;;;;;10372674;28;20422;-59
2023/08/04 17:56:47;;;;;;;2.47;1.63;;;;;;;;;;10371306;28;20022;-59
2023/08/04 18:01:48;;;;;;;3.35;1.95;;;;;;;;;;10372288;28;20045;-59
2023/08/04 18:06:48;;;;;;;4.68;1.58;;;;;;;;;;10372055;28;20018;-59
2023/08/04 18:11:49;;;;;;;1.77;1.45;;;;;;;;;;10371758;28;20029;-59
2023/08/04 18:16:50;;;;;;;5.88;1.92;;;;;;;;;;10371968;28;20030;-59
2023/08/04 18:21:53;;;;;;;1.92;1.48;;;;;;;;;;10371988;28;20034;-59
2023/08/04 18:26:53;;;;;;;3.20;1.42;;;;;;;;;;10369912;28;20037;-59
2023/08/04 18:31:54;;;;;;;3.05;1.60;;;;;;;;;;10371527;28;20026;-60
2023/08/04 18:36:54;;;;;;;1.90;1.40;;;;;;;;;;10370813;28;20026;-67
2023/08/04 18:41:55;;;;;;;3.00;1.45;;;;;;;;;;10371068;28;20386;-61
2023/08/04 18:46:56;;;;;;;2.90;1.70;;;;;;;;;;10370061;28;20065;-61
2023/08/04 18:51:56;;;;;;;1.63;1.30;;;;;;;;;;10369570;28;20054;-61
2023/08/04 18:56:57;;;;;;;2.05;1.55;;;;;;;;;;10369533;28;20057;-61
2023/08/04 19:01:57;;;;;;;2.50;1.30;;;;;;;;;;10369787;28;20103;-61
2023/08/04 19:06:58;;;;;;;2.58;1.60;;;;;;;;;;10367934;28;20026;-59
2023/08/04 19:11:58;;;;;;;1.83;1.42;;;;;;;;;;10367649;28;20034;-65
2023/08/04 19:17:04;;;;;;;1.67;1.50;;;;;;;;;;10368946;28;20026;-58
2023/08/04 19:22:05;;;;;;;2.88;1.75;;;;;;;;;;10369074;28;20030;-59
2023/08/04 19:27:06;;;;;;;2.42;1.80;;;;;;;;;;10368934;28;20500;-58
2023/08/04 19:32:07;;;;;;;4.00;1.65;;;;;;;;;;10369638;28;20489;-58
2023/08/04 19:37:07;;;;;;;3.22;1.60;;;;;;;;;;10367989;28;20026;-59
2023/08/04 19:42:08;;;;;;;2.38;1.85;;;;;;;;;;10368546;28;20033;-59
2023/08/04 19:47:09;;;;;;;3.20;1.40;;;;;;;;;;10368786;28;20145;-59
2023/08/04 19:52:10;;;;;;;4.45;1.80;;;;;;;;;;10368116;28;20181;-59
2023/08/04 19:57:10;;;;;;;2.35;1.90;;;;;;;;;;10369026;28;20044;-64
2023/08/04 20:02:11;;;;;;;2.22;1.80;;;;;;;;;;10367994;28;20026;-59
2023/08/04 20:07:12;;;;;;;1.52;1.30;;;;;;;;;;10368308;28;20034;-59
2023/08/04 20:12:12;;;;;;;2.03;1.63;;;;;;;;;;10368177;28;20040;-59
2023/08/04 20:17:13;;;;;;;2.85;1.90;;;;;;;;;;10367606;28;20029;-59
2023/08/04 20:22:13;;;;;;;3.60;1.70;;;;;;;;;;10373995;28;20402;-62
2023/08/04 20:27:14;;;;;;;1.92;1.60;;;;;;;;;;10376248;28;20370;-58
2023/08/04 20:32:14;;;;;;;2.17;1.20;;;;;;;;;;10376004;28;20026;-59
2023/08/04 20:37:15;;;;;;;3.10;1.80;;;;;;;;;;10375376;28;20074;-60
2023/08/04 20:42:16;;;;;;;2.72;1.60;;;;;;;;;;10374367;28;20025;-59
2023/08/04 20:47:16;;;;;;;4.47;2.03;;;;;;;;;;10375400;28;20489;-58
2023/08/04 20:52:17;;;;;;;4.38;1.60;;;;;;;;;;10374577;28;20050;-58
2023/08/04 20:57:17;;;;;;;5.68;1.70;;;;;;;;;;10374671;28;20033;-58
2023/08/04 21:02:18;;;;;;;3.28;1.77;;;;;;;;;;10374418;28;20041;-58
2023/08/04 21:07:18;;;;;;;6.13;1.92;;;;;;;;;;10374192;28;20026;-58
2023/08/04 21:12:19;;;;;;;5.90;1.95;;;;;;;;;;10374320;28;20029;-58
2023/08/04 21:17:19;;;;;;;3.05;1.50;;;;;;;;;;10374250;28;20034;-58
2023/08/04 21:22:20;;;;;;;3.10;1.48;;;;;;;;;;10374074;28;20022;-58
2023/08/04 21:27:21;;;;;;;4.13;1.48;;;;;;;;;;10373413;28;20092;-58
2023/08/04 21:32:21;;;;;;;3.38;1.83;;;;;;;;;;10373084;28;20037;-58
2023/08/04 21:37:22;;;;;;;3.63;1.80;;;;;;;;;;10373029;28;20057;-58
2023/08/04 21:42:22;;;;;;;3.17;1.45;;;;;;;;;;10372937;28;20025;-58
2023/08/04 21:47:23;;;;;;;2.53;1.55;;;;;;;;;;10372511;28;20037;-58
2023/08/04 21:52:25;;;;;;;1.55;1.45;;;;;;;;;;10371914;28;20060;-58
2023/08/04 21:57:25;;;;;;;4.15;1.58;;;;;;;;;;10372240;28;20041;-58
2023/08/04 22:02:26;;;;;;;2.17;1.58;;;;;;;;;;10372114;28;20060;-58
2023/08/04 22:07:26;;;;;;;1.48;1.25;;;;;;;;;;10371722;28;20038;-58
2023/08/04 22:12:27;;;;;;;4.32;1.88;;;;;;;;;;10371744;28;20030;-58
2023/08/04 22:17:27;;;;;;;3.83;1.90;;;;;;;;;;10370987;28;20021;-59
2023/08/04 22:22:28;;;;;;;2.03;1.70;;;;;;;;;;10371288;28;20033;-60
2023/08/04 22:27:29;;;;;;;2.22;1.83;;;;;;;;;;10371223;28;20034;-59
2023/08/04 22:32:30;;;;;;;2.45;1.75;;;;;;;;;;10371354;28;20261;-59
2023/08/04 22:37:30;;;;;;;2.38;1.60;;;;;;;;;;10370593;28;20586;-59
2023/08/04 22:42:31;;;;;;;2.35;1.40;;;;;;;;;;10369897;28;20505;-59
2023/08/04 22:47:32;;;;;;;4.50;1.50;;;;;;;;;;10370852;28;20045;-59
2023/08/04 22:52:32;;;;;;;2.35;1.65;;;;;;;;;;10369879;28;20046;-59
2023/08/04 22:57:33;;;;;;;2.38;1.40;;;;;;;;;;10369936;28;20033;-59
2023/08/04 23:02:33;;;;;;;1.75;1.42;;;;;;;;;;10369622;28;20030;-59
2023/08/04 23:07:34;;;;;;;3.83;1.65;;;;;;;;;;10369533;28;20042;-59
2023/08/04 23:12:36;;;;;;;2.53;1.70;;;;;;;;;;10369146;28;20025;-59
2023/08/04 23:17:37;;;;;;;1.75;1.58;;;;;;;;;;10369169;28;20022;-64
2023/08/04 23:22:37;;;;;;;2.30;1.50;;;;;;;;;;10369487;28;20482;-59
2023/08/04 23:27:38;;;;;;;2.35;1.70;;;;;;;;;;10368837;28;20033;-59
2023/08/04 23:32:38;;;;;;;2.17;1.58;;;;;;;;;;10368905;28;20044;-60
2023/08/04 23:37:39;;;;;;;2.03;1.60;;;;;;;;;;10368479;28;20200;-61
2023/08/04 23:42:39;;;;;;;1.98;1.40;;;;;;;;;;10368901;28;20037;-62
2023/08/04 23:47:40;;;;;;;2.42;1.50;;;;;;;;;;10368475;28;20026;-59
2023/08/04 23:52:41;;;;;;;1.83;1.48;;;;;;;;;;10367876;28;20049;-59
2023/08/04 23:57:41;;;;;;;1.70;1.60;;;;;;;;;;10367153;28;20033;-60
